New Camp, Illinois
Current Conditions -  °F | °C
As of 1:30 AM on Monday 22 Dec 2014 (Local Time) from KMWA Reporting Station
Overcast Overcast  
Wind Chill: 36°   Ceiling: 7500
Heat Index: 39°   Visibility: 10mi
Dew Point: 30°   Wind: 5mph
Humidity: 70%   Direction: 100°E
Pressure: 29.94"   Gusts: NA
Location:  37.8053°N, 89.0801°W
Report Text: KMWA 220730Z AUTO 10004KT 10SM BKN075 OVC095 04/M01 A2994 RMK AO2
Loading
Personal Weather Stations






























Interactive Weather Map New forecast layout! Learn more

10-Day Weather Forecast

Advertisements
Track Severe Weather on mobile